Details From LICC - Catania Fontanarossa
To LEAB - Albacete
Flight Number -
Tags Generated
Created
Modified
Stats Distance 812 nm / 1,504 km
Max Altitude 0 ft / 0 m
Waypoints 4
Social Downloads 2
Likes 0
Share VATSIM

Download

Looking for another format? Having issues loading an existing format? Contact us
Advertisement - Login to hide

Notes

Generated

Route

LICC OSMAR SOFIA LEAB

ID Type Via Altitude Latitude Longitude Leg Dist Tot Dist Heading (true) Name
O LICC APT - 0 ft / 0 m 37.46563˚ 15.05269˚ - 0 nm - -
OSMAR FIX - 0 ft / 0 m 38.25472˚ 9.78722˚ 254 nm 254 nm 282° / 279° -
SOFIA FIX - 0 ft / 0 m 39.27361˚ -1.49556˚ 531 nm 785 nm 280° / 273° -
O LEAB APT - 0 ft / 0 m 38.94797˚ -1.87906˚ 26 nm 812 nm 223° / 222° -

Altitude Profile

Advertisement - Login to hide

Weather


0- 5 10 15 20 25 30 35+ Temperature / ° C

Clouds and Precipitation
Forecast for 2017-12-18 06:00 UTC. Updated 34 minutes ago

Ground ~20,000 ft ~40,000 ft Winds

LICC

Details ICAO LICC (CTA)
Name Catania Fontanarossa
Region Italy
Timezone Europe/Rome (UTC+1.0)
Stats Elevation 39 ft / 12 m (AMSL)
Location 37.466779° 15.066401°
Runways 1
Magnetic Variation 3.216° E

METAR

LICC 180120Z 24009KT CAVOK 05/02 Q1018

Decode

TAF

TAF LICC 172300Z 1800/1824 28012KT 9999 SCT030 BECMG 1811/1813 09010KT BECMG 1816/1818 26008KT

Decode

Departure Runways

ID Width Length Bearing (true) Bearing (mag) Surface Threshold Offset Overrun Length
08 148 ft / 45 m 7,985 ft / 2,434 m 83.94° 80.72° Asphalt 312 ft / 95 m 0 ft / 0 m
26 148 ft / 45 m 7,985 ft / 2,434 m 263.95° 260.73° Asphalt 279 ft / 85 m 0 ft / 0 m

LEAB

Details ICAO LEAB
Name Albacete
Region Spain
Timezone Europe/Madrid (UTC+1.0)
Stats Elevation 2,301 ft / 701 m (AMSL)
Location 38.948527° -1.863500°
Runways 1
Magnetic Variation 0.167° W

METAR

LEAB 180100Z 26002KT CAVOK M03/M04 Q1031 NOSIG

Decode

TAF

Not found

Destination Runways

ID Width Length Bearing (true) Bearing (mag) Surface Threshold Offset Overrun Length
09 197 ft / 60 m 8,839 ft / 2,694 m 87.36° 87.53° Asphalt 0 ft / 0 m 1,247 ft / 380 m
27 197 ft / 60 m 8,839 ft / 2,694 m 267.38° 267.55° Asphalt 0 ft / 0 m 1,247 ft / 380 m

Approach Navaids

Runway Type Ident Frequency Range Bearing (true) Bearing (mag) Slope Elevation
09 Localiser IABT 110.70 MHz 18 nm / 33 km 87.74° 87.90° - 2,301 ft / 701 m (AMSL)
09 Glidescope IABT 110.70 MHz 10 nm / 19 km 87.37° 87.54° 2.50° 2,301 ft / 701 m (AMSL)
09 DME IABT 110.70 MHz 18 nm / 33 km - - - 2,301 ft / 701 m (AMSL)
27 Localiser IAE 109.70 MHz 18 nm / 33 km 267.40° 267.57° - 2,301 ft / 701 m (AMSL)
27 Glidescope IAE 109.70 MHz 10 nm / 19 km 267.37° 267.54° 3.00° 2,301 ft / 701 m (AMSL)
27 DME IAE 109.70 MHz 18 nm / 33 km - - - 2,301 ft / 701 m (AMSL)